createdAt,value
2023-02-22T00:00:38.883Z,971.79
2023-02-22T00:01:38.871Z,971.83
2023-02-22T00:02:38.854Z,971.82
2023-02-22T00:03:38.834Z,971.82
2023-02-22T00:04:38.823Z,971.81
2023-02-22T00:05:38.801Z,971.83
2023-02-22T00:06:38.790Z,971.84
2023-02-22T00:07:38.771Z,971.82
2023-02-22T00:08:38.760Z,971.87
2023-02-22T00:09:38.741Z,971.83
2023-02-22T00:10:38.731Z,971.86
2023-02-22T00:11:38.782Z,971.89
2023-02-22T00:12:38.702Z,971.85
2023-02-22T00:13:38.682Z,971.84
2023-02-22T00:14:38.684Z,971.86
2023-02-22T00:15:38.651Z,971.87
2023-02-22T00:16:38.653Z,971.87
2023-02-22T00:17:38.615Z,971.88
2023-02-22T00:18:38.605Z,971.87
2023-02-22T00:19:38.588Z,971.89
2023-02-22T00:20:38.573Z,971.90
2023-02-22T00:21:38.554Z,971.86
2023-02-22T00:22:38.543Z,971.82
2023-02-22T00:23:38.523Z,971.84
2023-02-22T00:24:38.510Z,971.82
2023-02-22T00:25:38.494Z,971.80
2023-02-22T00:26:38.501Z,971.82
2023-02-22T00:27:38.461Z,971.78
2023-02-22T00:28:38.449Z,971.79
2023-02-22T00:29:38.433Z,971.77
2023-02-22T00:30:38.474Z,971.75
2023-02-22T00:31:38.422Z,971.71
2023-02-22T00:32:38.445Z,971.73
2023-02-22T00:33:38.369Z,971.74
2023-02-22T00:34:38.350Z,971.68
2023-02-22T00:35:38.343Z,971.68
2023-02-22T00:36:38.319Z,971.73
2023-02-22T00:37:38.311Z,971.69
2023-02-22T00:38:38.305Z,971.67
2023-02-22T00:39:38.276Z,971.68
2023-02-22T00:40:38.255Z,971.70
2023-02-22T00:41:38.257Z,971.69
2023-02-22T00:42:38.223Z,971.71
2023-02-22T00:43:38.212Z,971.66
2023-02-22T00:44:38.195Z,971.69
2023-02-22T00:45:38.252Z,971.69
2023-02-22T00:46:38.182Z,971.69
2023-02-22T00:47:38.150Z,971.71
2023-02-22T00:48:38.137Z,971.68
2023-02-22T00:49:38.118Z,971.70
2023-02-22T00:50:38.106Z,971.68
2023-02-22T00:51:38.094Z,971.73
2023-02-22T00:52:38.070Z,971.71
2023-02-22T00:53:38.054Z,971.71
2023-02-22T00:54:38.040Z,971.75
2023-02-22T00:55:38.041Z,971.75
2023-02-22T00:56:38.005Z,971.73
2023-02-22T00:57:37.997Z,971.75
2023-02-22T00:58:37.976Z,971.71
2023-02-22T00:59:37.963Z,971.68
2023-02-22T01:00:37.963Z,971.68
2023-02-22T01:01:38.032Z,971.68
2023-02-22T01:02:38.070Z,971.68
2023-02-22T01:03:37.900Z,971.67
2023-02-22T01:04:37.881Z,971.66
2023-02-22T01:05:37.868Z,971.67
2023-02-22T01:06:37.851Z,971.65
2023-02-22T01:07:37.835Z,971.59
2023-02-22T01:08:37.817Z,971.65
2023-02-22T01:09:37.804Z,971.61
2023-02-22T01:10:37.803Z,971.65
2023-02-22T01:11:37.774Z,971.62
2023-02-22T01:12:37.751Z,971.62
2023-02-22T01:13:37.739Z,971.58
2023-02-22T01:14:37.720Z,971.59
2023-02-22T01:15:37.707Z,971.55
2023-02-22T01:16:37.771Z,971.58
2023-02-22T01:17:37.681Z,971.54
2023-02-22T01:18:37.755Z,971.50
2023-02-22T01:19:37.647Z,971.50
2023-02-22T01:20:37.623Z,971.49
2023-02-22T01:21:37.612Z,971.50
2023-02-22T01:22:37.601Z,971.52
2023-02-22T01:23:37.582Z,971.50
2023-02-22T01:24:37.564Z,971.51
2023-02-22T01:25:37.567Z,971.50
2023-02-22T01:26:37.530Z,971.52
2023-02-22T01:27:37.516Z,971.51
2023-02-22T01:28:37.498Z,971.54
2023-02-22T01:29:37.485Z,971.51
2023-02-22T01:30:37.636Z,971.54
2023-02-22T01:31:37.474Z,971.50
2023-02-22T01:32:37.433Z,971.49
2023-02-22T01:33:37.421Z,971.51
2023-02-22T01:34:37.476Z,971.51
2023-02-22T01:35:37.392Z,971.53
2023-02-22T01:36:37.370Z,971.51
2023-02-22T01:37:37.355Z,971.50
2023-02-22T01:38:37.337Z,971.52
2023-02-22T01:39:37.329Z,971.52
2023-02-22T01:40:37.311Z,971.52
2023-02-22T01:41:37.293Z,971.52
2023-02-22T01:42:37.279Z,971.49
2023-02-22T01:43:37.260Z,971.52
2023-02-22T01:44:37.240Z,971.54
2023-02-22T01:45:37.230Z,971.49
2023-02-22T01:46:37.216Z,971.47
2023-02-22T01:47:37.197Z,971.45
2023-02-22T01:48:37.174Z,971.47
2023-02-22T01:49:37.164Z,971.47
2023-02-22T01:50:37.181Z,971.48
2023-02-22T01:51:37.130Z,971.47
2023-02-22T01:52:37.116Z,971.48
2023-02-22T01:53:37.100Z,971.48
2023-02-22T01:54:37.078Z,971.46
2023-02-22T01:55:37.065Z,971.46
2023-02-22T01:56:37.078Z,971.47
2023-02-22T01:57:37.042Z,971.48
2023-02-22T01:58:37.019Z,971.49
2023-02-22T01:59:36.999Z,971.48
2023-02-22T02:00:36.981Z,971.48
2023-02-22T02:01:36.972Z,971.46
2023-02-22T02:02:36.949Z,971.48
2023-02-22T02:03:36.965Z,971.44
2023-02-22T02:04:36.923Z,971.45
2023-02-22T02:05:36.912Z,971.44
2023-02-22T02:06:36.912Z,971.46
2023-02-22T02:07:36.871Z,971.44
2023-02-22T02:08:36.852Z,971.41
2023-02-22T02:09:36.839Z,971.43
2023-02-22T02:10:36.821Z,971.40
2023-02-22T02:11:36.808Z,971.43
2023-02-22T02:12:36.800Z,971.41
2023-02-22T02:13:36.777Z,971.43
2023-02-22T02:14:36.757Z,971.41
2023-02-22T02:15:36.745Z,971.42
2023-02-22T02:16:36.773Z,971.41
2023-02-22T02:17:36.713Z,971.40
2023-02-22T02:18:36.694Z,971.39
2023-02-22T02:19:36.688Z,971.39
2023-02-22T02:20:36.662Z,971.40
2023-02-22T02:21:36.661Z,971.39
2023-02-22T02:22:36.654Z,971.39
2023-02-22T02:23:36.619Z,971.34
2023-02-22T02:24:36.598Z,971.32
2023-02-22T02:26:36.574Z,971.25
2023-02-22T02:27:36.551Z,971.26
2023-02-22T02:28:36.540Z,971.24
2023-02-22T02:29:36.519Z,971.23
2023-02-22T02:30:36.560Z,971.23
2023-02-22T02:31:36.586Z,971.26
2023-02-22T02:32:36.517Z,971.24
2023-02-22T02:33:36.452Z,971.22
2023-02-22T02:34:36.445Z,971.20
2023-02-22T02:35:36.421Z,971.17
2023-02-22T02:36:36.408Z,971.22
2023-02-22T02:37:36.388Z,971.19
2023-02-22T02:38:36.444Z,971.15
2023-02-22T02:39:36.357Z,971.13
2023-02-22T02:40:36.406Z,971.10
2023-02-22T02:41:36.323Z,971.12
2023-02-22T02:42:36.311Z,971.09
2023-02-22T02:43:36.290Z,971.07
2023-02-22T02:44:36.281Z,971.07
2023-02-22T02:45:36.280Z,971.07
2023-02-22T02:46:36.245Z,971.05
2023-02-22T02:47:36.226Z,971.07
2023-02-22T02:48:36.217Z,971.08
2023-02-22T02:49:36.196Z,971.02
2023-02-22T02:50:36.180Z,971.04
2023-02-22T02:51:36.162Z,971.06
2023-02-22T02:52:36.146Z,971.03
2023-02-22T02:53:36.128Z,971.05
2023-02-22T02:54:36.142Z,971.03
2023-02-22T02:55:36.098Z,971.02
2023-02-22T02:56:36.084Z,971.04
2023-02-22T02:57:36.067Z,971.01
2023-02-22T02:58:36.050Z,970.95
2023-02-22T02:59:36.032Z,970.96
2023-02-22T03:00:36.021Z,970.95
2023-02-22T03:01:36.024Z,970.99
2023-02-22T03:02:35.986Z,970.95
2023-02-22T03:03:35.968Z,970.97
2023-02-22T03:04:35.955Z,970.97
2023-02-22T03:05:35.933Z,970.98
2023-02-22T03:06:35.920Z,970.99
2023-02-22T03:07:35.933Z,970.96
2023-02-22T03:08:35.888Z,970.99
2023-02-22T03:09:35.868Z,970.99
2023-02-22T03:10:35.876Z,970.94
2023-02-22T03:11:35.837Z,970.97
2023-02-22T03:12:35.824Z,970.94
2023-02-22T03:13:35.805Z,970.93
2023-02-22T03:14:35.996Z,970.93
2023-02-22T03:15:35.772Z,970.93
2023-02-22T03:16:35.831Z,970.88
2023-02-22T03:17:35.739Z,970.90
2023-02-22T03:18:35.727Z,970.90
2023-02-22T03:19:35.706Z,970.89
2023-02-22T03:20:35.694Z,970.89
2023-02-22T03:21:35.676Z,970.88
2023-02-22T03:22:35.660Z,970.88
2023-02-22T03:23:35.641Z,970.92
2023-02-22T03:24:35.628Z,970.90
2023-02-22T03:25:35.608Z,970.92
2023-02-22T03:26:35.678Z,970.90
2023-02-22T03:27:35.577Z,970.96
2023-02-22T03:28:35.565Z,970.92
2023-02-22T03:29:35.643Z,970.93
2023-02-22T03:30:35.576Z,970.94
2023-02-22T03:31:35.548Z,970.94
2023-02-22T03:32:35.496Z,970.95
2023-02-22T03:33:35.476Z,970.89
2023-02-22T03:34:35.502Z,970.92
2023-02-22T03:35:35.445Z,970.90
2023-02-22T03:36:35.432Z,970.89
2023-02-22T03:37:35.426Z,970.91
2023-02-22T03:38:35.413Z,970.89
2023-02-22T03:39:35.392Z,970.92
2023-02-22T03:40:35.366Z,970.90
2023-02-22T03:41:35.352Z,970.91
2023-02-22T03:42:35.352Z,970.91
2023-02-22T03:43:35.366Z,970.89
2023-02-22T03:44:35.306Z,970.88
2023-02-22T03:45:35.284Z,970.92
2023-02-22T03:46:35.354Z,970.93
2023-02-22T03:47:35.261Z,970.96
2023-02-22T03:48:35.234Z,970.94
2023-02-22T03:49:35.216Z,970.94
2023-02-22T03:50:35.202Z,970.91
2023-02-22T03:51:35.188Z,970.94
2023-02-22T03:52:35.172Z,970.89
2023-02-22T03:53:35.149Z,970.88
2023-02-22T03:54:35.187Z,970.89
2023-02-22T03:55:35.125Z,970.96
2023-02-22T03:56:35.130Z,970.89
2023-02-22T03:57:35.082Z,970.92
2023-02-22T03:58:35.101Z,970.91
2023-02-22T03:59:35.051Z,970.91
2023-02-22T04:00:35.036Z,970.91
2023-02-22T04:01:35.020Z,970.93
2023-02-22T04:02:35.004Z,970.92
2023-02-22T04:03:34.986Z,970.92
2023-02-22T04:04:35.014Z,970.88
2023-02-22T04:05:34.952Z,970.88
2023-02-22T04:06:34.939Z,970.94
2023-02-22T04:07:34.919Z,970.90
2023-02-22T04:08:34.921Z,970.89
2023-02-22T04:09:34.888Z,970.90
2023-02-22T04:10:34.870Z,970.87
2023-02-22T04:11:34.855Z,970.88
2023-02-22T04:12:34.838Z,970.87
2023-02-22T04:13:34.819Z,970.86
2023-02-22T04:14:34.823Z,970.87
2023-02-22T04:15:34.794Z,970.87
2023-02-22T04:16:34.772Z,970.86
2023-02-22T04:17:34.752Z,970.81
2023-02-22T04:18:34.741Z,970.85
2023-02-22T04:19:34.719Z,970.83
2023-02-22T04:20:34.706Z,970.82
2023-02-22T04:21:34.689Z,970.85
2023-02-22T04:22:34.672Z,970.86
2023-02-22T04:23:34.659Z,970.83
2023-02-22T04:24:34.638Z,970.84
2023-02-22T04:25:34.624Z,970.87
2023-02-22T04:26:34.609Z,970.84
2023-02-22T04:27:34.587Z,970.85
2023-02-22T04:28:34.573Z,970.90
2023-02-22T04:29:34.554Z,970.86
2023-02-22T04:30:34.616Z,970.88
2023-02-22T04:31:34.605Z,970.88
2023-02-22T04:32:34.559Z,970.88
2023-02-22T04:33:34.487Z,970.88
2023-02-22T04:34:34.478Z,970.89
2023-02-22T04:35:35.630Z,970.89
2023-02-22T04:36:34.440Z,970.87
2023-02-22T04:37:34.472Z,970.88
2023-02-22T04:38:34.415Z,970.87
2023-02-22T04:39:34.462Z,970.86
2023-02-22T04:40:34.379Z,970.87
2023-02-22T04:41:34.354Z,970.87
2023-02-22T04:42:34.348Z,970.84
2023-02-22T04:43:34.320Z,970.84
2023-02-22T04:44:34.306Z,970.86
2023-02-22T04:45:34.291Z,970.89
2023-02-22T04:46:34.362Z,970.83
2023-02-22T04:47:34.259Z,970.85
2023-02-22T04:48:34.240Z,970.80
2023-02-22T04:49:34.225Z,970.83
2023-02-22T04:50:34.206Z,970.81
2023-02-22T04:51:34.194Z,970.84
2023-02-22T04:52:34.171Z,970.81
2023-02-22T04:53:34.160Z,970.81
2023-02-22T04:54:34.139Z,970.80
2023-02-22T04:55:34.171Z,970.82
2023-02-22T04:56:34.104Z,970.82
2023-02-22T04:57:34.091Z,970.83
2023-02-22T04:58:34.072Z,970.79
2023-02-22T04:59:34.068Z,970.81
2023-02-22T05:00:34.038Z,970.80
2023-02-22T05:01:34.031Z,970.74
2023-02-22T05:02:34.047Z,970.79
2023-02-22T05:03:33.992Z,970.77
2023-02-22T05:04:33.987Z,970.76
2023-02-22T05:05:33.956Z,970.73
2023-02-22T05:06:33.944Z,970.79
2023-02-22T05:07:33.928Z,970.75
2023-02-22T05:08:33.904Z,970.75
2023-02-22T05:09:33.890Z,970.75
2023-02-22T05:10:33.880Z,970.73
2023-02-22T05:11:33.863Z,970.77
2023-02-22T05:12:33.838Z,970.76
2023-02-22T05:13:33.827Z,970.76
2023-02-22T05:14:33.803Z,970.77
2023-02-22T05:15:33.790Z,970.78
2023-02-22T05:16:33.770Z,970.72
2023-02-22T05:17:33.759Z,970.72
2023-02-22T05:18:33.757Z,970.74
2023-02-22T05:19:33.725Z,970.73
2023-02-22T05:20:33.719Z,970.79
2023-02-22T05:21:33.706Z,970.78
2023-02-22T05:22:33.675Z,970.76
2023-02-22T05:23:33.667Z,970.77
2023-02-22T05:24:33.637Z,970.71
2023-02-22T05:25:33.629Z,970.71
2023-02-22T05:26:33.648Z,970.69
2023-02-22T05:27:33.590Z,970.67
2023-02-22T05:28:33.576Z,970.75
2023-02-22T05:29:33.557Z,970.69
2023-02-22T05:30:33.594Z,970.72
2023-02-22T05:31:33.620Z,970.70
2023-02-22T05:32:33.504Z,970.69
2023-02-22T05:33:33.496Z,970.74
2023-02-22T05:34:33.508Z,970.70
2023-02-22T05:35:33.463Z,970.67
2023-02-22T05:36:33.437Z,970.67
2023-02-22T05:37:33.424Z,970.69
2023-02-22T05:38:33.405Z,970.69
2023-02-22T05:39:33.392Z,970.67
2023-02-22T05:40:33.372Z,970.65
2023-02-22T05:41:33.358Z,970.66
2023-02-22T05:42:33.339Z,970.68
2023-02-22T05:43:33.338Z,970.69
2023-02-22T05:44:33.313Z,970.68
2023-02-22T05:45:33.296Z,970.70
2023-02-22T05:46:33.336Z,970.70
2023-02-22T05:47:33.261Z,970.68
2023-02-22T05:48:33.255Z,970.71
2023-02-22T05:49:33.234Z,970.74
2023-02-22T05:50:33.346Z,970.71
2023-02-22T05:51:33.195Z,970.72
2023-02-22T05:52:33.177Z,970.68
2023-02-22T05:53:33.160Z,970.74
2023-02-22T05:54:33.145Z,970.73
2023-02-22T05:55:33.151Z,970.74
2023-02-22T05:56:33.110Z,970.70
2023-02-22T05:57:33.091Z,970.72
2023-02-22T05:58:33.073Z,970.69
2023-02-22T05:59:33.057Z,970.72
2023-02-22T06:00:33.037Z,970.72
2023-02-22T06:01:33.043Z,970.71
2023-02-22T06:02:33.011Z,970.73
2023-02-22T06:03:32.992Z,970.71
2023-02-22T06:04:32.969Z,970.76
2023-02-22T06:05:33.020Z,970.75
2023-02-22T06:06:32.983Z,970.73
2023-02-22T06:07:32.926Z,970.73
2023-02-22T06:08:32.902Z,970.75
2023-02-22T06:09:32.889Z,970.75
2023-02-22T06:10:32.869Z,970.76
2023-02-22T06:11:32.857Z,970.75
2023-02-22T06:12:32.836Z,970.76
2023-02-22T06:13:32.873Z,970.73
2023-02-22T06:14:32.808Z,970.77
2023-02-22T06:15:32.789Z,970.76
2023-02-22T06:16:32.803Z,970.77
2023-02-22T06:17:32.756Z,970.79
2023-02-22T06:18:32.742Z,970.82
2023-02-22T06:19:32.736Z,970.82
2023-02-22T06:20:32.702Z,970.80
2023-02-22T06:21:32.691Z,970.80
2023-02-22T06:22:32.685Z,970.78
2023-02-22T06:23:32.656Z,970.81
2023-02-22T06:24:32.637Z,970.82
2023-02-22T06:25:32.629Z,970.80
2023-02-22T06:26:32.602Z,970.80
2023-02-22T06:27:32.588Z,970.81
2023-02-22T06:28:32.568Z,970.79
2023-02-22T06:29:32.554Z,970.77
2023-02-22T06:30:32.568Z,970.82
2023-02-22T06:31:32.546Z,970.80
2023-02-22T06:32:32.576Z,970.79
2023-02-22T06:33:32.493Z,970.79
2023-02-22T06:34:32.480Z,970.83
2023-02-22T06:35:32.454Z,970.78
2023-02-22T06:36:32.435Z,970.87
2023-02-22T06:37:32.420Z,970.79
2023-02-22T06:38:32.425Z,970.81
2023-02-22T06:39:32.404Z,970.85
2023-02-22T06:40:32.387Z,970.87
2023-02-22T06:41:32.353Z,970.84
2023-02-22T06:42:32.339Z,970.85
2023-02-22T06:43:32.330Z,970.88
2023-02-22T06:44:32.300Z,970.90
2023-02-22T06:45:32.333Z,970.92
2023-02-22T06:46:32.273Z,970.91
2023-02-22T06:47:32.253Z,970.92
2023-02-22T06:48:32.232Z,970.91
2023-02-22T06:49:32.219Z,970.91
2023-02-22T06:50:34.244Z,970.94
2023-02-22T06:51:32.186Z,970.92
2023-02-22T06:52:32.167Z,970.93
2023-02-22T06:53:32.157Z,970.93
2023-02-22T06:54:32.154Z,970.97
2023-02-22T06:55:32.118Z,970.93
2023-02-22T06:56:32.101Z,970.94
2023-02-22T06:57:32.102Z,970.94
2023-02-22T06:58:32.067Z,970.94
2023-02-22T06:59:32.053Z,970.96
2023-02-22T07:00:32.032Z,970.95
2023-02-22T07:01:32.020Z,970.97
2023-02-22T07:02:32.000Z,970.92
2023-02-22T07:03:32.060Z,970.96
2023-02-22T07:04:31.967Z,970.99
2023-02-22T07:05:31.976Z,970.98
2023-02-22T07:06:31.936Z,970.94
2023-02-22T07:07:31.925Z,970.94
2023-02-22T07:08:31.908Z,970.97
2023-02-22T07:09:31.903Z,970.95
2023-02-22T07:10:31.891Z,970.95
2023-02-22T07:11:31.864Z,970.97
2023-02-22T07:12:31.839Z,971.03
2023-02-22T07:13:31.828Z,971.01
2023-02-22T07:14:31.806Z,971.01
2023-02-22T07:15:31.794Z,971.04
2023-02-22T07:16:31.865Z,971.00
2023-02-22T07:17:31.763Z,971.00
2023-02-22T07:18:31.795Z,970.99
2023-02-22T07:19:31.730Z,970.98
2023-02-22T07:20:31.711Z,971.03
2023-02-22T07:21:31.697Z,971.02
2023-02-22T07:22:31.678Z,971.03
2023-02-22T07:23:31.666Z,971.04
2023-02-22T07:24:31.644Z,971.05
2023-02-22T07:25:31.630Z,971.07
2023-02-22T07:26:31.630Z,971.05
2023-02-22T07:27:31.601Z,971.09
2023-02-22T07:28:31.588Z,971.07
2023-02-22T07:29:31.565Z,971.06
2023-02-22T07:30:31.639Z,971.06
2023-02-22T07:31:31.534Z,971.05
2023-02-22T07:32:31.600Z,971.12
2023-02-22T07:33:31.504Z,971.07
2023-02-22T07:34:31.484Z,971.06
2023-02-22T07:35:31.485Z,971.06
2023-02-22T07:36:31.463Z,971.06
2023-02-22T07:37:31.484Z,971.06
2023-02-22T07:38:31.418Z,971.05
2023-02-22T07:39:31.410Z,971.06
2023-02-22T07:40:31.389Z,971.02
2023-02-22T07:41:31.377Z,971.01
2023-02-22T07:42:31.377Z,971.01
2023-02-22T07:43:31.342Z,971.02
2023-02-22T07:44:31.369Z,971.05
2023-02-22T07:45:31.337Z,971.07
2023-02-22T07:46:31.300Z,971.05
2023-02-22T07:47:31.275Z,971.04
2023-02-22T07:48:31.266Z,971.07
2023-02-22T07:49:31.243Z,971.05
2023-02-22T07:50:31.230Z,971.03
2023-02-22T07:51:31.211Z,971.01
2023-02-22T07:52:31.192Z,971.05
2023-02-22T07:53:31.184Z,971.01
2023-02-22T07:54:31.161Z,971.06
2023-02-22T07:55:31.147Z,971.06
2023-02-22T07:56:31.128Z,971.00
2023-02-22T07:57:31.118Z,971.00
2023-02-22T07:58:31.123Z,971.01
2023-02-22T07:59:31.085Z,970.98
2023-02-22T08:00:31.065Z,971.03
2023-02-22T08:01:31.052Z,971.02
2023-02-22T08:02:31.110Z,970.99
2023-02-22T08:03:31.092Z,971.02
2023-02-22T08:05:30.989Z,970.95
2023-02-22T08:06:30.976Z,970.95
2023-02-22T08:07:30.969Z,970.94
2023-02-22T08:08:30.954Z,970.97
2023-02-22T08:09:30.937Z,970.96
2023-02-22T08:10:31.004Z,971.00
2023-02-22T08:11:30.910Z,970.96
2023-02-22T08:12:30.902Z,970.93
2023-02-22T08:13:30.876Z,970.95
2023-02-22T08:14:30.898Z,970.93
2023-02-22T08:15:30.838Z,970.96
2023-02-22T08:16:30.829Z,970.91
2023-02-22T08:17:30.806Z,970.95
2023-02-22T08:18:30.796Z,970.97
2023-02-22T08:19:30.779Z,970.94
2023-02-22T08:20:30.763Z,970.94
2023-02-22T08:21:30.746Z,970.93
2023-02-22T08:22:30.743Z,970.93
2023-02-22T08:23:30.717Z,970.94
2023-02-22T08:24:30.707Z,970.93
2023-02-22T08:25:30.693Z,970.93
2023-02-22T08:26:30.692Z,970.92
2023-02-22T08:27:30.658Z,970.88
2023-02-22T08:28:30.650Z,970.89
2023-02-22T08:29:30.625Z,970.94
2023-02-22T08:30:30.825Z,970.90
2023-02-22T08:31:30.611Z,970.87
2023-02-22T08:32:30.697Z,970.89
2023-02-22T08:33:30.566Z,970.92
2023-02-22T08:34:30.555Z,970.91
2023-02-22T08:35:30.541Z,970.91
2023-02-22T08:36:30.524Z,970.94
2023-02-22T08:37:30.507Z,970.95
2023-02-22T08:38:30.496Z,970.92
2023-02-22T08:39:30.477Z,970.91
2023-02-22T08:40:30.466Z,970.94
2023-02-22T08:41:30.454Z,970.92
2023-02-22T08:42:30.440Z,970.94
2023-02-22T08:43:30.421Z,970.93
2023-02-22T08:44:30.465Z,970.95
2023-02-22T08:45:30.470Z,970.93
2023-02-22T08:46:30.407Z,970.87
2023-02-22T08:47:30.363Z,970.88
2023-02-22T08:48:30.348Z,970.87
2023-02-22T08:49:30.331Z,970.88
2023-02-22T08:50:30.318Z,970.90
2023-02-22T08:51:30.302Z,970.89
2023-02-22T08:52:30.290Z,970.92
2023-02-22T08:53:30.288Z,970.87
2023-02-22T08:54:30.259Z,970.88
2023-02-22T08:55:30.242Z,970.87
2023-02-22T08:56:30.243Z,970.89
2023-02-22T08:57:30.212Z,970.88
2023-02-22T08:58:30.202Z,970.84
2023-02-22T08:59:30.184Z,970.87
2023-02-22T09:00:30.173Z,970.86
2023-02-22T09:01:33.484Z,970.85
2023-02-22T09:02:30.299Z,970.87
2023-02-22T09:03:30.214Z,970.91
2023-02-22T09:04:30.113Z,970.88
2023-02-22T09:05:31.428Z,970.87
2023-02-22T09:06:30.107Z,970.85
2023-02-22T09:07:30.088Z,970.86
2023-02-22T09:08:30.053Z,970.84
2023-02-22T09:09:30.069Z,970.85
2023-02-22T09:10:30.026Z,970.87
2023-02-22T09:11:30.014Z,970.88
2023-02-22T09:12:29.993Z,970.84
2023-02-22T09:13:29.984Z,970.83
2023-02-22T09:14:29.966Z,970.82
2023-02-22T09:15:29.996Z,970.83
2023-02-22T09:16:29.951Z,970.78
2023-02-22T09:17:30.126Z,970.82
2023-02-22T09:18:42.407Z,970.80
2023-02-22T09:19:29.903Z,970.82
2023-02-22T09:20:29.888Z,970.80
2023-02-22T09:21:29.868Z,970.80
2023-02-22T09:22:29.850Z,970.83
2023-02-22T09:23:29.840Z,970.79
2023-02-22T09:24:29.846Z,970.82
2023-02-22T09:25:29.816Z,970.81
2023-02-22T09:26:29.797Z,970.83
2023-02-22T09:27:29.784Z,970.84
2023-02-22T09:28:29.766Z,970.84
2023-02-22T09:29:29.767Z,970.80
2023-02-22T09:30:29.786Z,970.85
2023-02-22T09:31:29.854Z,970.82
2023-02-22T09:32:29.873Z,970.82
2023-02-22T09:33:29.752Z,970.86
2023-02-22T09:34:29.929Z,970.85
2023-02-22T09:35:29.714Z,970.82
2023-02-22T09:36:29.656Z,970.83
2023-02-22T09:37:29.645Z,970.84
2023-02-22T09:38:29.630Z,970.82
2023-02-22T09:39:29.711Z,970.75
2023-02-22T09:40:29.668Z,970.82
2023-02-22T09:41:29.593Z,970.80
2023-02-22T09:42:29.586Z,970.79
2023-02-22T09:43:29.566Z,970.77
2023-02-22T09:44:29.572Z,970.75
2023-02-22T09:45:29.601Z,970.79
2023-02-22T09:46:29.551Z,970.77
2023-02-22T09:47:29.565Z,970.74
2023-02-22T09:48:29.497Z,970.70
2023-02-22T09:49:29.488Z,970.73
2023-02-22T09:50:29.495Z,970.73
2023-02-22T09:51:29.479Z,970.71
2023-02-22T09:52:29.454Z,970.71
2023-02-22T09:53:29.704Z,970.73
2023-02-22T09:54:29.420Z,970.71
2023-02-22T09:55:29.413Z,970.72
2023-02-22T09:56:29.399Z,970.68
2023-02-22T09:57:29.386Z,970.72
2023-02-22T09:58:29.373Z,970.74
2023-02-22T09:59:29.362Z,970.67
2023-02-22T10:00:29.352Z,970.72
2023-02-22T10:01:29.356Z,970.73
2023-02-22T10:02:29.325Z,970.73
2023-02-22T10:03:29.326Z,970.72
2023-02-22T10:04:29.294Z,970.69
2023-02-22T10:05:29.322Z,970.71
2023-02-22T10:06:29.298Z,970.69
2023-02-22T10:07:29.285Z,970.69
2023-02-22T10:08:31.065Z,970.72
2023-02-22T10:09:29.246Z,970.71
2023-02-22T10:10:29.225Z,970.74
2023-02-22T10:11:29.216Z,970.73
2023-02-22T10:12:29.204Z,970.69
2023-02-22T10:13:29.215Z,970.71
2023-02-22T10:14:29.178Z,970.74
2023-02-22T10:15:29.178Z,970.72
2023-02-22T10:16:29.197Z,970.73
2023-02-22T10:17:29.144Z,970.69
2023-02-22T10:18:29.129Z,970.69
2023-02-22T10:19:29.121Z,970.69
2023-02-22T10:20:29.105Z,970.69
2023-02-22T10:21:29.096Z,970.66
2023-02-22T10:22:29.136Z,970.66
2023-02-22T10:23:29.077Z,970.65
2023-02-22T10:24:29.061Z,970.68
2023-02-22T10:25:29.054Z,970.59
2023-02-22T10:26:29.038Z,970.61
2023-02-22T10:27:29.065Z,970.63
2023-02-22T10:28:29.018Z,970.58
2023-02-22T10:29:29.008Z,970.62
2023-02-22T10:30:30.396Z,970.62
2023-02-22T10:31:29.210Z,970.58
2023-02-22T10:32:28.990Z,970.59
2023-02-22T10:33:28.966Z,970.58
2023-02-22T10:34:28.952Z,970.53
2023-02-22T10:35:28.944Z,970.55
2023-02-22T10:36:28.927Z,970.55
2023-02-22T10:37:28.996Z,970.53
2023-02-22T10:38:28.930Z,970.51
2023-02-22T10:39:28.926Z,970.53
2023-02-22T10:40:28.902Z,970.51
2023-02-22T10:41:28.876Z,970.52
2023-02-22T10:42:28.863Z,970.50
2023-02-22T10:43:28.860Z,970.48
2023-02-22T10:44:28.843Z,970.48
2023-02-22T10:45:28.837Z,970.48
2023-02-22T10:46:28.824Z,970.43
2023-02-22T10:47:28.816Z,970.46
2023-02-22T10:48:28.801Z,970.44
2023-02-22T10:49:28.792Z,970.45
2023-02-22T10:50:28.779Z,970.43
2023-02-22T10:51:28.771Z,970.41
2023-02-22T10:52:28.758Z,970.44
2023-02-22T10:53:28.751Z,970.41
2023-02-22T10:54:28.756Z,970.42
2023-02-22T10:55:28.731Z,970.46
2023-02-22T10:56:28.734Z,970.42
2023-02-22T10:57:28.708Z,970.39
2023-02-22T10:58:28.696Z,970.35
2023-02-22T10:59:28.687Z,970.34
2023-02-22T11:00:28.677Z,970.34
2023-02-22T11:01:28.772Z,970.35
2023-02-22T11:02:28.654Z,970.34
2023-02-22T11:03:28.648Z,970.34
2023-02-22T11:04:28.635Z,970.33
2023-02-22T11:05:28.630Z,970.32
2023-02-22T11:06:28.616Z,970.33
2023-02-22T11:07:28.610Z,970.30
2023-02-22T11:08:28.597Z,970.25
2023-02-22T11:09:28.585Z,970.24
2023-02-22T11:10:28.647Z,970.29
2023-02-22T11:11:28.569Z,970.22
2023-02-22T11:12:28.583Z,970.24
2023-02-22T11:13:28.571Z,970.21
2023-02-22T11:14:28.537Z,970.19
2023-02-22T11:15:28.535Z,970.22
2023-02-22T11:16:28.601Z,970.18
2023-02-22T11:17:28.506Z,970.17
2023-02-22T11:18:28.502Z,970.18
2023-02-22T11:19:28.490Z,970.16
2023-02-22T11:20:28.474Z,970.18
2023-02-22T11:21:28.466Z,970.15
2023-02-22T11:22:28.453Z,970.13
2023-02-22T11:23:28.447Z,970.11
2023-02-22T11:25:28.429Z,970.13
2023-02-22T11:26:28.445Z,970.10
2023-02-22T11:27:28.457Z,970.09
2023-02-22T11:28:28.400Z,970.08
2023-02-22T11:29:28.435Z,970.10
2023-02-22T11:30:28.500Z,970.10
2023-02-22T11:31:28.460Z,970.08
2023-02-22T11:32:28.359Z,970.08
2023-02-22T11:33:28.344Z,970.06
2023-02-22T11:34:28.338Z,970.07
2023-02-22T11:35:28.338Z,970.07
2023-02-22T11:36:28.316Z,970.03
2023-02-22T11:37:28.303Z,969.97
2023-02-22T11:38:28.522Z,969.98
2023-02-22T11:40:28.274Z,970.02
2023-02-22T11:41:28.273Z,969.97
2023-02-22T11:42:28.271Z,970.02
2023-02-22T11:43:28.256Z,969.98
2023-02-22T11:44:28.238Z,969.98
2023-02-22T11:45:28.228Z,969.99
2023-02-22T11:46:28.228Z,969.96
2023-02-22T11:47:28.209Z,969.94
2023-02-22T11:48:28.197Z,969.96
2023-02-22T11:49:28.187Z,969.93
2023-02-22T11:50:28.189Z,969.97
2023-02-22T11:51:28.170Z,969.96
2023-02-22T11:52:28.158Z,969.92
2023-02-22T11:53:28.354Z,969.93
2023-02-22T11:54:28.140Z,969.97
2023-02-22T11:55:41.833Z,969.97
2023-02-22T11:56:37.202Z,969.95
2023-02-22T11:57:28.129Z,969.94
2023-02-22T11:58:28.184Z,969.97
2023-02-22T11:59:28.090Z,969.95
2023-02-22T12:00:28.078Z,969.92
2023-02-22T12:01:28.073Z,969.90
2023-02-22T12:02:28.060Z,969.92
2023-02-22T12:03:28.948Z,969.93
2023-02-22T12:04:28.096Z,969.88
2023-02-22T12:05:28.039Z,969.91
2023-02-22T12:06:28.028Z,969.90
2023-02-22T12:07:28.021Z,969.87
2023-02-22T12:08:28.039Z,969.87
2023-02-22T12:09:28.010Z,969.84
2023-02-22T12:10:27.987Z,969.85
2023-02-22T12:11:27.990Z,969.83
2023-02-22T12:12:27.968Z,969.84
2023-02-22T12:13:27.962Z,969.80
2023-02-22T12:14:27.970Z,969.82
2023-02-22T12:15:28.022Z,969.79
2023-02-22T12:16:27.933Z,969.80
2023-02-22T12:17:27.924Z,969.79
2023-02-22T12:18:27.914Z,969.80
2023-02-22T12:19:27.910Z,969.81
2023-02-22T12:20:27.895Z,969.80
2023-02-22T12:21:27.889Z,969.77
2023-02-22T12:22:27.881Z,969.74
2023-02-22T12:23:27.873Z,969.74
2023-02-22T12:24:27.865Z,969.75
2023-02-22T12:25:27.858Z,969.74
2023-02-22T12:26:27.842Z,969.71
2023-02-22T12:27:27.856Z,969.71
2023-02-22T12:29:27.820Z,969.72
2023-02-22T12:30:27.960Z,969.74
2023-02-22T12:31:27.853Z,969.73
2023-02-22T12:32:27.877Z,969.74
2023-02-22T12:33:27.816Z,969.76